sensor_id;sensor_type;location;lat;lon;timestamp;temperature;humidity
39095;DHT22;24840;47.508;19.376;2022-08-25T00:00:09;19.70;99.90
39095;DHT22;24840;47.508;19.376;2022-08-25T00:02:35;19.60;99.90
39095;DHT22;24840;47.508;19.376;2022-08-25T00:11:52;19.60;99.90
39095;DHT22;24840;47.508;19.376;2022-08-25T00:14:22;19.60;99.90
39095;DHT22;24840;47.508;19.376;2022-08-25T00:20:10;19.50;99.90
39095;DHT22;24840;47.508;19.376;2022-08-25T00:25:58;19.50;99.90
39095;DHT22;24840;47.508;19.376;2022-08-25T00:28:24;19.40;99.90
39095;DHT22;24840;47.508;19.376;2022-08-25T00:30:50;19.40;99.90
39095;DHT22;24840;47.508;19.376;2022-08-25T00:33:17;19.30;99.90
39095;DHT22;24840;47.508;19.376;2022-08-25T00:39:32;19.20;99.90
39095;DHT22;24840;47.508;19.376;2022-08-25T00:41:59;19.10;99.90
39095;DHT22;24840;47.508;19.376;2022-08-25T00:44:27;19.00;99.90
39095;DHT22;24840;47.508;19.376;2022-08-25T00:50:16;19.10;99.90
39095;DHT22;24840;47.508;19.376;2022-08-25T00:56:29;19.00;99.90
39095;DHT22;24840;47.508;19.376;2022-08-25T00:58:57;19.10;99.90
39095;DHT22;24840;47.508;19.376;2022-08-25T01:01:25;19.00;99.90
39095;DHT22;24840;47.508;19.376;2022-08-25T01:03:51;19.00;99.90
39095;DHT22;24840;47.508;19.376;2022-08-25T01:09:39;18.90;99.90
39095;DHT22;24840;47.508;19.376;2022-08-25T01:12:06;18.90;99.90
39095;DHT22;24840;47.508;19.376;2022-08-25T01:14:33;18.80;99.90
39095;DHT22;24840;47.508;19.376;2022-08-25T01:20:24;18.90;99.90
39095;DHT22;24840;47.508;19.376;2022-08-25T01:22:51;18.80;99.90
39095;DHT22;24840;47.508;19.376;2022-08-25T01:25:35;18.80;99.90
39095;DHT22;24840;47.508;19.376;2022-08-25T01:28:07;18.60;99.90
39095;DHT22;24840;47.508;19.376;2022-08-25T01:30:33;18.60;99.90
39095;DHT22;24840;47.508;19.376;2022-08-25T01:33:06;18.50;99.90
39095;DHT22;24840;47.508;19.376;2022-08-25T01:41:53;18.60;99.90
39095;DHT22;24840;47.508;19.376;2022-08-25T01:44:23;18.60;99.90
39095;DHT22;24840;47.508;19.376;2022-08-25T01:50:12;18.50;99.90
39095;DHT22;24840;47.508;19.376;2022-08-25T01:56:24;18.30;99.90
39095;DHT22;24840;47.508;19.376;2022-08-25T01:58:50;18.30;99.90
39095;DHT22;24840;47.508;19.376;2022-08-25T02:01:23;18.30;99.90
39095;DHT22;24840;47.508;19.376;2022-08-25T02:03:51;18.30;99.90
39095;DHT22;24840;47.508;19.376;2022-08-25T02:09:39;18.40;99.90
39095;DHT22;24840;47.508;19.376;2022-08-25T02:12:06;18.40;99.90
39095;DHT22;24840;47.508;19.376;2022-08-25T02:14:34;18.30;99.90
39095;DHT22;24840;47.508;19.376;2022-08-25T02:33:26;17.90;99.90
39095;DHT22;24840;47.508;19.376;2022-08-25T02:39:30;17.90;99.90
39095;DHT22;24840;47.508;19.376;2022-08-25T02:41:55;17.90;99.90
39095;DHT22;24840;47.508;19.376;2022-08-25T02:44:21;17.90;99.90
39095;DHT22;24840;47.508;19.376;2022-08-25T02:50:10;17.80;99.90
39095;DHT22;24840;47.508;19.376;2022-08-25T02:55:58;17.70;99.90
39095;DHT22;24840;47.508;19.376;2022-08-25T02:58:24;17.70;99.90
39095;DHT22;24840;47.508;19.376;2022-08-25T03:00:50;17.70;99.90
39095;DHT22;24840;47.508;19.376;2022-08-25T03:03:18;17.80;99.90
39095;DHT22;24840;47.508;19.376;2022-08-25T03:06:08;17.80;99.90
39095;DHT22;24840;47.508;19.376;2022-08-25T03:08:36;17.70;99.90
39095;DHT22;24840;47.508;19.376;2022-08-25T03:11:03;17.70;99.90
39095;DHT22;24840;47.508;19.376;2022-08-25T03:13:29;17.80;99.90
39095;DHT22;24840;47.508;19.376;2022-08-25T03:19:30;17.70;99.90
39095;DHT22;24840;47.508;19.376;2022-08-25T03:21:56;17.90;99.90
39095;DHT22;24840;47.508;19.376;2022-08-25T03:24:24;17.80;99.90
39095;DHT22;24840;47.508;19.376;2022-08-25T03:30:12;17.60;99.90
39095;DHT22;24840;47.508;19.376;2022-08-25T03:32:38;17.60;99.90
39095;DHT22;24840;47.508;19.376;2022-08-25T03:41:55;17.50;99.90
39095;DHT22;24840;47.508;19.376;2022-08-25T03:44:21;17.50;99.90
39095;DHT22;24840;47.508;19.376;2022-08-25T03:50:23;17.50;99.90
39095;DHT22;24840;47.508;19.376;2022-08-25T03:52:55;17.50;99.90
39095;DHT22;24840;47.508;19.376;2022-08-25T04:01:55;17.60;99.90
39095;DHT22;24840;47.508;19.376;2022-08-25T04:04:22;17.50;99.90
39095;DHT22;24840;47.508;19.376;2022-08-25T04:10:17;17.40;99.90
39095;DHT22;24840;47.508;19.376;2022-08-25T04:12:43;17.50;99.90
39095;DHT22;24840;47.508;19.376;2022-08-25T04:22:01;17.60;99.90
39095;DHT22;24840;47.508;19.376;2022-08-25T04:24:27;17.60;99.90
39095;DHT22;24840;47.508;19.376;2022-08-25T04:30:15;17.60;99.90
39095;DHT22;24840;47.508;19.376;2022-08-25T04:32:41;17.60;99.90
39095;DHT22;24840;47.508;19.376;2022-08-25T04:49:10;17.70;99.90
39095;DHT22;24840;47.508;19.376;2022-08-25T04:51:38;17.70;99.90
39095;DHT22;24840;47.508;19.376;2022-08-25T04:54:08;17.70;99.90
39095;DHT22;24840;47.508;19.376;2022-08-25T04:59:56;17.80;99.90
39095;DHT22;24840;47.508;19.376;2022-08-25T05:02:22;17.80;99.90
39095;DHT22;24840;47.508;19.376;2022-08-25T05:04:49;17.90;99.90
39095;DHT22;24840;47.508;19.376;2022-08-25T05:07:15;17.90;99.90
39095;DHT22;24840;47.508;19.376;2022-08-25T05:09:41;17.90;99.90
39095;DHT22;24840;47.508;19.376;2022-08-25T05:12:07;17.90;99.90
39095;DHT22;24840;47.508;19.376;2022-08-25T05:14:33;18.00;99.90
39095;DHT22;24840;47.508;19.376;2022-08-25T05:20:22;18.10;99.90
39095;DHT22;24840;47.508;19.376;2022-08-25T05:22:48;18.10;99.90
39095;DHT22;24840;47.508;19.376;2022-08-25T05:31:56;18.40;99.90
39095;DHT22;24840;47.508;19.376;2022-08-25T05:34:22;18.50;99.90
39095;DHT22;24840;47.508;19.376;2022-08-25T05:40:11;18.80;99.90
39095;DHT22;24840;47.508;19.376;2022-08-25T05:42:38;19.00;99.90
39095;DHT22;24840;47.508;19.376;2022-08-25T05:51:50;19.40;99.90
39095;DHT22;24840;47.508;19.376;2022-08-25T05:54:16;19.60;99.90
39095;DHT22;24840;47.508;19.376;2022-08-25T06:00:05;20.00;99.90
39095;DHT22;24840;47.508;19.376;2022-08-25T06:02:31;20.10;99.90
39095;DHT22;24840;47.508;19.376;2022-08-25T06:11:52;20.80;99.90
39095;DHT22;24840;47.508;19.376;2022-08-25T06:14:19;21.10;99.90
39095;DHT22;24840;47.508;19.376;2022-08-25T06:20:21;21.50;99.90
39095;DHT22;24840;47.508;19.376;2022-08-25T06:22:48;21.70;99.90
39095;DHT22;24840;47.508;19.376;2022-08-25T06:31:49;22.60;99.90
39095;DHT22;24840;47.508;19.376;2022-08-25T06:34:15;22.70;99.90
39095;DHT22;24840;47.508;19.376;2022-08-25T06:40:05;23.10;99.90
39095;DHT22;24840;47.508;19.376;2022-08-25T06:42:34;23.40;99.90
39095;DHT22;24840;47.508;19.376;2022-08-25T06:45:02;23.50;99.90
39095;DHT22;24840;47.508;19.376;2022-08-25T06:47:28;23.80;99.90
39095;DHT22;24840;47.508;19.376;2022-08-25T06:49:54;23.80;99.90
39095;DHT22;24840;47.508;19.376;2022-08-25T06:52:20;24.00;99.90
39095;DHT22;24840;47.508;19.376;2022-08-25T06:54:47;24.30;99.90
39095;DHT22;24840;47.508;19.376;2022-08-25T06:57:16;24.60;99.90
39095;DHT22;24840;47.508;19.376;2022-08-25T06:59:42;24.90;99.90
39095;DHT22;24840;47.508;19.376;2022-08-25T07:02:08;25.10;99.90
39095;DHT22;24840;47.508;19.376;2022-08-25T07:04:35;25.40;99.90
39095;DHT22;24840;47.508;19.376;2022-08-25T07:07:01;25.40;99.90
39095;DHT22;24840;47.508;19.376;2022-08-25T07:09:28;25.20;99.90
39095;DHT22;24840;47.508;19.376;2022-08-25T07:11:54;25.50;99.90
39095;DHT22;24840;47.508;19.376;2022-08-25T07:14:20;25.70;99.90
39095;DHT22;24840;47.508;19.376;2022-08-25T07:16:47;25.70;99.90
39095;DHT22;24840;47.508;19.376;2022-08-25T07:19:13;25.90;99.90
39095;DHT22;24840;47.508;19.376;2022-08-25T07:21:41;26.20;99.90
39095;DHT22;24840;47.508;19.376;2022-08-25T07:24:12;26.20;99.90
39095;DHT22;24840;47.508;19.376;2022-08-25T07:26:40;26.30;99.90
39095;DHT22;24840;47.508;19.376;2022-08-25T07:29:13;26.30;99.90
39095;DHT22;24840;47.508;19.376;2022-08-25T07:31:39;26.50;99.90
39095;DHT22;24840;47.508;19.376;2022-08-25T07:34:06;26.80;99.90
39095;DHT22;24840;47.508;19.376;2022-08-25T07:36:51;27.30;99.90
39095;DHT22;24840;47.508;19.376;2022-08-25T07:39:17;27.30;99.90
39095;DHT22;24840;47.508;19.376;2022-08-25T07:41:43;27.50;99.90
39095;DHT22;24840;47.508;19.376;2022-08-25T07:44:10;27.60;99.90
39095;DHT22;24840;47.508;19.376;2022-08-25T07:46:39;27.80;98.80
39095;DHT22;24840;47.508;19.376;2022-08-25T07:49:06;27.80;98.80
39095;DHT22;24840;47.508;19.376;2022-08-25T07:51:32;28.30;99.60
39095;DHT22;24840;47.508;19.376;2022-08-25T07:53:58;28.30;97.80
39095;DHT22;24840;47.508;19.376;2022-08-25T07:56:24;28.70;96.80
39095;DHT22;24840;47.508;19.376;2022-08-25T07:58:50;28.50;95.70
39095;DHT22;24840;47.508;19.376;2022-08-25T08:01:19;28.90;95.60
39095;DHT22;24840;47.508;19.376;2022-08-25T08:03:46;29.40;94.10
39095;DHT22;24840;47.508;19.376;2022-08-25T08:06:14;29.30;92.30
39095;DHT22;24840;47.508;19.376;2022-08-25T08:08:42;29.10;92.50
39095;DHT22;24840;47.508;19.376;2022-08-25T08:11:24;29.50;93.20
39095;DHT22;24840;47.508;19.376;2022-08-25T08:13:52;29.90;91.70
39095;DHT22;24840;47.508;19.376;2022-08-25T08:16:19;30.20;91.80
39095;DHT22;24840;47.508;19.376;2022-08-25T08:18:46;29.90;91.20
39095;DHT22;24840;47.508;19.376;2022-08-25T08:23:42;30.40;88.00
39095;DHT22;24840;47.508;19.376;2022-08-25T08:26:09;30.30;88.90
39095;DHT22;24840;47.508;19.376;2022-08-25T08:28:35;30.60;90.10
39095;DHT22;24840;47.508;19.376;2022-08-25T08:31:01;30.20;86.50
39095;DHT22;24840;47.508;19.376;2022-08-25T08:33:27;30.20;89.40
39095;DHT22;24840;47.508;19.376;2022-08-25T08:35:58;30.50;90.20
39095;DHT22;24840;47.508;19.376;2022-08-25T08:38:26;30.70;87.60
39095;DHT22;24840;47.508;19.376;2022-08-25T08:41:13;31.10;84.70
39095;DHT22;24840;47.508;19.376;2022-08-25T08:55:25;32.20;80.50
39095;DHT22;24840;47.508;19.376;2022-08-25T08:57:54;31.60;81.30
39095;DHT22;24840;47.508;19.376;2022-08-25T09:00:21;32.10;82.50
39095;DHT22;24840;47.508;19.376;2022-08-25T09:02:52;31.60;80.10
39095;DHT22;24840;47.508;19.376;2022-08-25T09:05:25;31.60;81.00
39095;DHT22;24840;47.508;19.376;2022-08-25T09:07:58;31.00;81.40
39095;DHT22;24840;47.508;19.376;2022-08-25T09:10:32;30.90;82.40
39095;DHT22;24840;47.508;19.376;2022-08-25T09:13:16;31.40;82.00
39095;DHT22;24840;47.508;19.376;2022-08-25T09:15:54;31.30;81.00
39095;DHT22;24840;47.508;19.376;2022-08-25T09:21:29;32.90;81.40
39095;DHT22;24840;47.508;19.376;2022-08-25T09:24:20;33.20;76.50
39095;DHT22;24840;47.508;19.376;2022-08-25T09:27:14;32.40;76.90
39095;DHT22;24840;47.508;19.376;2022-08-25T09:30:16;33.00;76.80
39095;DHT22;24840;47.508;19.376;2022-08-25T09:32:50;34.40;75.20
39095;DHT22;24840;47.508;19.376;2022-08-25T09:35:24;33.20;73.70
39095;DHT22;24840;47.508;19.376;2022-08-25T09:38:02;33.30;72.70
39095;DHT22;24840;47.508;19.376;2022-08-25T09:40:35;33.60;73.00
39095;DHT22;24840;47.508;19.376;2022-08-25T09:43:03;32.10;76.50
39095;DHT22;24840;47.508;19.376;2022-08-25T09:45:43;32.70;76.70
39095;DHT22;24840;47.508;19.376;2022-08-25T09:48:33;33.40;73.20
39095;DHT22;24840;47.508;19.376;2022-08-25T09:51:23;33.90;71.20
39095;DHT22;24840;47.508;19.376;2022-08-25T09:56:54;33.10;68.60
39095;DHT22;24840;47.508;19.376;2022-08-25T09:59:33;32.40;71.40
39095;DHT22;24840;47.508;19.376;2022-08-25T10:02:05;32.30;73.10
39095;DHT22;24840;47.508;19.376;2022-08-25T10:04:45;33.00;70.90
39095;DHT22;24840;47.508;19.376;2022-08-25T10:07:25;33.60;69.10
39095;DHT22;24840;47.508;19.376;2022-08-25T10:09:55;34.80;67.20
39095;DHT22;24840;47.508;19.376;2022-08-25T10:14:57;34.00;67.30
39095;DHT22;24840;47.508;19.376;2022-08-25T10:19:54;34.30;67.10
39095;DHT22;24840;47.508;19.376;2022-08-25T10:22:25;34.80;69.90
39095;DHT22;24840;47.508;19.376;2022-08-25T10:24:58;35.30;65.70
39095;DHT22;24840;47.508;19.376;2022-08-25T10:30:28;35.80;66.90
39095;DHT22;24840;47.508;19.376;2022-08-25T10:33:26;34.60;66.80
39095;DHT22;24840;47.508;19.376;2022-08-25T10:36:09;33.00;69.70
39095;DHT22;24840;47.508;19.376;2022-08-25T10:38:42;32.50;71.20
39095;DHT22;24840;47.508;19.376;2022-08-25T10:47:30;34.60;68.30
39095;DHT22;24840;47.508;19.376;2022-08-25T10:50:09;34.40;70.50
39095;DHT22;24840;47.508;19.376;2022-08-25T10:58:57;33.50;67.90
39095;DHT22;24840;47.508;19.376;2022-08-25T11:07:25;35.60;65.30
39095;DHT22;24840;47.508;19.376;2022-08-25T11:09:57;35.90;64.20
39095;DHT22;24840;47.508;19.376;2022-08-25T11:12:36;35.50;61.40
39095;DHT22;24840;47.508;19.376;2022-08-25T11:15:11;36.40;63.40
39095;DHT22;24840;47.508;19.376;2022-08-25T11:20:20;36.30;62.90
39095;DHT22;24840;47.508;19.376;2022-08-25T11:22:58;35.60;60.50
39095;DHT22;24840;47.508;19.376;2022-08-25T11:25:30;36.10;64.90
39095;DHT22;24840;47.508;19.376;2022-08-25T11:28:15;37.30;62.40
39095;DHT22;24840;47.508;19.376;2022-08-25T11:30:43;37.60;60.10
39095;DHT22;24840;47.508;19.376;2022-08-25T11:33:14;37.20;61.20
39095;DHT22;24840;47.508;19.376;2022-08-25T11:35:53;36.80;59.50
39095;DHT22;24840;47.508;19.376;2022-08-25T11:44:16;35.70;64.30
39095;DHT22;24840;47.508;19.376;2022-08-25T11:47:10;36.30;60.50
39095;DHT22;24840;47.508;19.376;2022-08-25T11:49:58;37.50;58.40
39095;DHT22;24840;47.508;19.376;2022-08-25T12:00:45;38.00;58.90
39095;DHT22;24840;47.508;19.376;2022-08-25T12:08:53;38.60;55.30
39095;DHT22;24840;47.508;19.376;2022-08-25T12:11:42;38.50;56.80
39095;DHT22;24840;47.508;19.376;2022-08-25T12:14:16;37.40;56.10
39095;DHT22;24840;47.508;19.376;2022-08-25T12:27:30;34.40;65.80
39095;DHT22;24840;47.508;19.376;2022-08-25T12:33:08;33.90;68.70
39095;DHT22;24840;47.508;19.376;2022-08-25T12:38:32;34.90;63.90
39095;DHT22;24840;47.508;19.376;2022-08-25T12:41:09;34.50;63.80
39095;DHT22;24840;47.508;19.376;2022-08-25T12:43:38;34.10;67.80
39095;DHT22;24840;47.508;19.376;2022-08-25T12:54:23;37.30;58.70
39095;DHT22;24840;47.508;19.376;2022-08-25T12:57:00;37.90;59.80
39095;DHT22;24840;47.508;19.376;2022-08-25T12:59:40;38.10;55.00
39095;DHT22;24840;47.508;19.376;2022-08-25T13:10:50;36.60;59.20
39095;DHT22;24840;47.508;19.376;2022-08-25T13:16:29;36.20;54.70
39095;DHT22;24840;47.508;19.376;2022-08-25T13:18:56;35.30;59.20
39095;DHT22;24840;47.508;19.376;2022-08-25T13:23:59;36.50;57.00
39095;DHT22;24840;47.508;19.376;2022-08-25T13:26:33;36.90;56.20
39095;DHT22;24840;47.508;19.376;2022-08-25T13:29:11;37.10;54.70
39095;DHT22;24840;47.508;19.376;2022-08-25T13:31:53;37.10;56.30
39095;DHT22;24840;47.508;19.376;2022-08-25T13:34:23;36.60;55.60
39095;DHT22;24840;47.508;19.376;2022-08-25T13:36:49;36.10;55.20
39095;DHT22;24840;47.508;19.376;2022-08-25T13:39:35;36.20;54.80
39095;DHT22;24840;47.508;19.376;2022-08-25T13:42:04;37.40;56.70
39095;DHT22;24840;47.508;19.376;2022-08-25T13:44:35;37.50;53.40
39095;DHT22;24840;47.508;19.376;2022-08-25T13:47:16;37.70;52.30
39095;DHT22;24840;47.508;19.376;2022-08-25T13:49:46;37.70;52.90
39095;DHT22;24840;47.508;19.376;2022-08-25T13:52:25;37.90;53.10
39095;DHT22;24840;47.508;19.376;2022-08-25T13:54:57;37.30;53.80
39095;DHT22;24840;47.508;19.376;2022-08-25T13:57:26;36.80;57.50
39095;DHT22;24840;47.508;19.376;2022-08-25T14:00:05;37.00;54.70
39095;DHT22;24840;47.508;19.376;2022-08-25T14:02:43;36.30;53.40
39095;DHT22;24840;47.508;19.376;2022-08-25T14:05:10;36.40;56.10
39095;DHT22;24840;47.508;19.376;2022-08-25T14:07:37;36.50;54.50
39095;DHT22;24840;47.508;19.376;2022-08-25T14:10:09;36.40;55.20
39095;DHT22;24840;47.508;19.376;2022-08-25T14:12:38;36.70;54.90
39095;DHT22;24840;47.508;19.376;2022-08-25T14:15:26;37.10;55.80
39095;DHT22;24840;47.508;19.376;2022-08-25T14:18:07;36.40;56.30
39095;DHT22;24840;47.508;19.376;2022-08-25T14:20:35;36.00;56.60
39095;DHT22;24840;47.508;19.376;2022-08-25T14:23:16;36.30;57.50
39095;DHT22;24840;47.508;19.376;2022-08-25T14:25:42;36.50;57.50
39095;DHT22;24840;47.508;19.376;2022-08-25T14:28:15;36.50;56.80
39095;DHT22;24840;47.508;19.376;2022-08-25T14:30:45;36.90;56.00
39095;DHT22;24840;47.508;19.376;2022-08-25T14:33:13;36.40;56.60
39095;DHT22;24840;47.508;19.376;2022-08-25T14:35:42;36.40;56.30
39095;DHT22;24840;47.508;19.376;2022-08-25T14:38:10;36.80;57.30
39095;DHT22;24840;47.508;19.376;2022-08-25T14:40:37;36.40;57.00
39095;DHT22;24840;47.508;19.376;2022-08-25T14:43:05;35.70;57.30
39095;DHT22;24840;47.508;19.376;2022-08-25T14:45:30;35.60;58.20
39095;DHT22;24840;47.508;19.376;2022-08-25T14:48:02;35.90;54.80
39095;DHT22;24840;47.508;19.376;2022-08-25T14:50:29;36.00;58.00
39095;DHT22;24840;47.508;19.376;2022-08-25T14:52:55;36.10;58.10
39095;DHT22;24840;47.508;19.376;2022-08-25T14:55:20;35.00;57.10
39095;DHT22;24840;47.508;19.376;2022-08-25T14:57:46;35.10;57.10
39095;DHT22;24840;47.508;19.376;2022-08-25T15:00:12;35.40;58.10
39095;DHT22;24840;47.508;19.376;2022-08-25T15:02:41;35.50;60.50
39095;DHT22;24840;47.508;19.376;2022-08-25T15:05:11;35.40;58.60
39095;DHT22;24840;47.508;19.376;2022-08-25T15:07:41;35.20;57.20
39095;DHT22;24840;47.508;19.376;2022-08-25T15:10:26;35.20;60.80
39095;DHT22;24840;47.508;19.376;2022-08-25T15:12:55;35.40;57.10
39095;DHT22;24840;47.508;19.376;2022-08-25T15:15:22;35.40;57.00
39095;DHT22;24840;47.508;19.376;2022-08-25T15:17:51;35.30;57.90
39095;DHT22;24840;47.508;19.376;2022-08-25T15:20:17;35.50;57.70
39095;DHT22;24840;47.508;19.376;2022-08-25T15:22:43;35.40;56.80
39095;DHT22;24840;47.508;19.376;2022-08-25T15:25:10;35.30;58.00
39095;DHT22;24840;47.508;19.376;2022-08-25T15:27:36;35.20;56.40
39095;DHT22;24840;47.508;19.376;2022-08-25T15:30:03;35.10;59.50
39095;DHT22;24840;47.508;19.376;2022-08-25T15:32:29;34.50;61.30
39095;DHT22;24840;47.508;19.376;2022-08-25T15:34:55;33.90;64.20
39095;DHT22;24840;47.508;19.376;2022-08-25T15:37:22;33.40;65.00
39095;DHT22;24840;47.508;19.376;2022-08-25T15:39:48;33.50;67.00
39095;DHT22;24840;47.508;19.376;2022-08-25T15:42:14;33.40;63.60
39095;DHT22;24840;47.508;19.376;2022-08-25T15:44:42;33.30;64.30
39095;DHT22;24840;47.508;19.376;2022-08-25T15:47:08;33.50;63.80
39095;DHT22;24840;47.508;19.376;2022-08-25T15:49:35;33.50;63.50
39095;DHT22;24840;47.508;19.376;2022-08-25T15:52:01;33.40;63.80
39095;DHT22;24840;47.508;19.376;2022-08-25T15:54:28;32.70;65.00
39095;DHT22;24840;47.508;19.376;2022-08-25T15:56:55;32.30;64.90
39095;DHT22;24840;47.508;19.376;2022-08-25T15:59:22;32.30;68.60
39095;DHT22;24840;47.508;19.376;2022-08-25T16:01:48;32.30;70.20
39095;DHT22;24840;47.508;19.376;2022-08-25T16:04:19;32.20;70.80
39095;DHT22;24840;47.508;19.376;2022-08-25T16:06:45;32.00;70.60
39095;DHT22;24840;47.508;19.376;2022-08-25T16:09:11;32.00;69.70
39095;DHT22;24840;47.508;19.376;2022-08-25T16:11:38;32.00;70.70
39095;DHT22;24840;47.508;19.376;2022-08-25T16:14:07;31.80;73.10
39095;DHT22;24840;47.508;19.376;2022-08-25T16:16:36;31.80;71.30
39095;DHT22;24840;47.508;19.376;2022-08-25T16:19:03;31.50;72.20
39095;DHT22;24840;47.508;19.376;2022-08-25T16:21:31;31.30;73.60
39095;DHT22;24840;47.508;19.376;2022-08-25T16:24:01;31.20;72.60
39095;DHT22;24840;47.508;19.376;2022-08-25T16:26:29;31.20;74.40
39095;DHT22;24840;47.508;19.376;2022-08-25T16:28:55;31.00;76.00
39095;DHT22;24840;47.508;19.376;2022-08-25T16:31:22;31.00;76.60
39095;DHT22;24840;47.508;19.376;2022-08-25T16:33:49;30.90;76.00
39095;DHT22;24840;47.508;19.376;2022-08-25T16:36:23;30.70;79.20
39095;DHT22;24840;47.508;19.376;2022-08-25T16:38:50;30.50;78.00
39095;DHT22;24840;47.508;19.376;2022-08-25T16:41:19;30.30;76.50
39095;DHT22;24840;47.508;19.376;2022-08-25T16:43:45;30.20;80.70
39095;DHT22;24840;47.508;19.376;2022-08-25T16:46:14;30.00;81.80
39095;DHT22;24840;47.508;19.376;2022-08-25T16:48:52;29.90;82.30
39095;DHT22;24840;47.508;19.376;2022-08-25T16:51:20;29.80;82.80
39095;DHT22;24840;47.508;19.376;2022-08-25T16:53:47;29.70;84.40
39095;DHT22;24840;47.508;19.376;2022-08-25T16:56:33;29.60;87.10
39095;DHT22;24840;47.508;19.376;2022-08-25T16:59:00;29.30;88.30
39095;DHT22;24840;47.508;19.376;2022-08-25T17:01:29;29.20;86.40
39095;DHT22;24840;47.508;19.376;2022-08-25T17:03:56;29.20;86.90
39095;DHT22;24840;47.508;19.376;2022-08-25T17:06:24;28.90;87.50
39095;DHT22;24840;47.508;19.376;2022-08-25T17:08:50;28.80;87.50
39095;DHT22;24840;47.508;19.376;2022-08-25T17:11:21;28.80;87.00
39095;DHT22;24840;47.508;19.376;2022-08-25T17:13:50;28.70;88.80
39095;DHT22;24840;47.508;19.376;2022-08-25T17:16:17;28.60;87.70
39095;DHT22;24840;47.508;19.376;2022-08-25T17:18:44;28.40;89.30
39095;DHT22;24840;47.508;19.376;2022-08-25T17:21:12;28.30;89.80
39095;DHT22;24840;47.508;19.376;2022-08-25T17:23:40;28.20;90.30
39095;DHT22;24840;47.508;19.376;2022-08-25T17:26:13;28.10;90.50
39095;DHT22;24840;47.508;19.376;2022-08-25T17:28:40;28.00;91.30
39095;DHT22;24840;47.508;19.376;2022-08-25T17:31:07;27.80;91.80
39095;DHT22;24840;47.508;19.376;2022-08-25T17:33:33;27.70;92.20
39095;DHT22;24840;47.508;19.376;2022-08-25T17:36:00;27.50;92.40
39095;DHT22;24840;47.508;19.376;2022-08-25T17:38:27;27.40;92.60
39095;DHT22;24840;47.508;19.376;2022-08-25T17:40:58;27.20;93.50
39095;DHT22;24840;47.508;19.376;2022-08-25T17:43:26;27.00;94.10
39095;DHT22;24840;47.508;19.376;2022-08-25T17:45:53;27.00;94.40
39095;DHT22;24840;47.508;19.376;2022-08-25T17:48:23;26.80;95.20
39095;DHT22;24840;47.508;19.376;2022-08-25T17:50:49;26.70;95.60
39095;DHT22;24840;47.508;19.376;2022-08-25T17:53:16;26.60;95.90
39095;DHT22;24840;47.508;19.376;2022-08-25T17:55:42;26.50;95.60
39095;DHT22;24840;47.508;19.376;2022-08-25T17:58:11;26.40;96.00
39095;DHT22;24840;47.508;19.376;2022-08-25T18:00:37;26.30;96.70
39095;DHT22;24840;47.508;19.376;2022-08-25T18:03:05;26.20;97.20
39095;DHT22;24840;47.508;19.376;2022-08-25T18:05:34;26.20;97.40
39095;DHT22;24840;47.508;19.376;2022-08-25T18:08:01;26.00;97.80
39095;DHT22;24840;47.508;19.376;2022-08-25T18:10:27;25.90;98.20
39095;DHT22;24840;47.508;19.376;2022-08-25T18:12:53;25.80;98.70
39095;DHT22;24840;47.508;19.376;2022-08-25T18:15:19;25.80;98.70
39095;DHT22;24840;47.508;19.376;2022-08-25T18:17:46;25.60;99.50
39095;DHT22;24840;47.508;19.376;2022-08-25T18:20:12;25.60;99.90
39095;DHT22;24840;47.508;19.376;2022-08-25T18:22:39;25.40;99.90
39095;DHT22;24840;47.508;19.376;2022-08-25T18:25:11;25.40;99.90
39095;DHT22;24840;47.508;19.376;2022-08-25T18:27:37;25.40;99.90
39095;DHT22;24840;47.508;19.376;2022-08-25T18:30:05;25.30;99.90
39095;DHT22;24840;47.508;19.376;2022-08-25T18:32:32;25.30;99.90
39095;DHT22;24840;47.508;19.376;2022-08-25T18:34:58;25.20;99.90
39095;DHT22;24840;47.508;19.376;2022-08-25T18:37:24;25.10;99.90
39095;DHT22;24840;47.508;19.376;2022-08-25T18:40:09;25.10;99.90
39095;DHT22;24840;47.508;19.376;2022-08-25T18:42:56;25.00;99.90
39095;DHT22;24840;47.508;19.376;2022-08-25T18:45:25;24.90;99.90
39095;DHT22;24840;47.508;19.376;2022-08-25T18:47:56;24.80;99.90
39095;DHT22;24840;47.508;19.376;2022-08-25T18:50:28;24.80;99.90
39095;DHT22;24840;47.508;19.376;2022-08-25T18:52:54;24.70;99.90
39095;DHT22;24840;47.508;19.376;2022-08-25T18:55:22;24.60;99.90
39095;DHT22;24840;47.508;19.376;2022-08-25T18:57:48;24.50;99.90
39095;DHT22;24840;47.508;19.376;2022-08-25T19:00:17;24.50;99.90
39095;DHT22;24840;47.508;19.376;2022-08-25T19:02:47;24.40;99.90
39095;DHT22;24840;47.508;19.376;2022-08-25T19:05:14;24.30;99.90
39095;DHT22;24840;47.508;19.376;2022-08-25T19:07:40;24.30;99.90
39095;DHT22;24840;47.508;19.376;2022-08-25T19:10:07;24.20;99.90
39095;DHT22;24840;47.508;19.376;2022-08-25T19:12:34;24.20;99.90
39095;DHT22;24840;47.508;19.376;2022-08-25T19:15:00;24.10;99.90
39095;DHT22;24840;47.508;19.376;2022-08-25T19:17:26;24.10;99.90
39095;DHT22;24840;47.508;19.376;2022-08-25T19:19:52;24.00;99.90
39095;DHT22;24840;47.508;19.376;2022-08-25T19:22:18;23.90;99.90
39095;DHT22;24840;47.508;19.376;2022-08-25T19:24:44;23.80;99.90
39095;DHT22;24840;47.508;19.376;2022-08-25T19:27:11;23.80;99.90
39095;DHT22;24840;47.508;19.376;2022-08-25T19:29:37;23.70;99.90
39095;DHT22;24840;47.508;19.376;2022-08-25T19:32:04;23.60;99.90
39095;DHT22;24840;47.508;19.376;2022-08-25T19:34:36;23.50;99.90
39095;DHT22;24840;47.508;19.376;2022-08-25T19:37:04;23.40;99.90
39095;DHT22;24840;47.508;19.376;2022-08-25T19:39:32;23.40;99.90
39095;DHT22;24840;47.508;19.376;2022-08-25T19:41:59;23.30;99.90
39095;DHT22;24840;47.508;19.376;2022-08-25T19:44:25;23.20;99.90
39095;DHT22;24840;47.508;19.376;2022-08-25T19:46:52;23.20;99.90
39095;DHT22;24840;47.508;19.376;2022-08-25T19:49:23;23.20;99.90
39095;DHT22;24840;47.508;19.376;2022-08-25T19:51:53;23.10;99.90
39095;DHT22;24840;47.508;19.376;2022-08-25T19:54:27;23.10;99.90
39095;DHT22;24840;47.508;19.376;2022-08-25T19:56:54;23.10;99.90
39095;DHT22;24840;47.508;19.376;2022-08-25T19:59:22;23.00;99.90
39095;DHT22;24840;47.508;19.376;2022-08-25T20:01:49;23.00;99.90
39095;DHT22;24840;47.508;19.376;2022-08-25T20:04:16;22.90;99.90
39095;DHT22;24840;47.508;19.376;2022-08-25T20:06:50;22.90;99.90
39095;DHT22;24840;47.508;19.376;2022-08-25T20:09:16;22.90;99.90
39095;DHT22;24840;47.508;19.376;2022-08-25T20:11:43;22.90;99.90